createdAt,value
2023-05-06T00:01:15.818Z,4.89
2023-05-06T00:06:25.490Z,4.89
2023-05-06T00:11:35.887Z,4.82
2023-05-06T00:16:46.075Z,4.82
2023-05-06T00:21:54.188Z,4.79
2023-05-06T00:27:03.905Z,4.86
2023-05-06T00:32:14.021Z,4.86
2023-05-06T00:37:23.409Z,4.62
2023-05-06T00:42:33.861Z,4.62
2023-05-06T00:47:42.510Z,4.64
2023-05-06T00:52:51.426Z,4.64
2023-05-06T00:58:00.496Z,4.7
2023-05-06T01:03:10.332Z,4.7
2023-05-06T01:08:19.417Z,4.66
2023-05-06T01:13:29.850Z,4.66
2023-05-06T01:18:39.603Z,4.65
2023-05-06T01:23:49.342Z,4.65
2023-05-06T01:28:57.843Z,4.69
2023-05-06T01:34:07.591Z,4.69
2023-05-06T01:39:16.067Z,4.63
2023-05-06T01:44:25.844Z,4.63
2023-05-06T01:49:36.878Z,4.72
2023-05-06T01:54:45.343Z,4.72
2023-05-06T01:59:55.121Z,4.68
2023-05-06T02:05:03.586Z,4.68
2023-05-06T02:10:13.383Z,4.71
2023-05-06T02:15:23.118Z,4.71
2023-05-06T02:20:31.623Z,4.67
2023-05-06T02:25:41.344Z,4.67
2023-05-06T02:30:51.082Z,4.6
2023-05-06T02:36:01.485Z,4.6
2023-05-06T02:41:11.257Z,4.58
2023-05-06T02:46:21.486Z,4.58
2023-05-06T02:51:30.781Z,4.63
2023-05-06T02:56:39.247Z,4.63
2023-05-06T03:01:49.058Z,4.58
2023-05-06T03:48:14.722Z,4.45
2023-05-06T03:53:24.051Z,4.45
2023-05-06T03:58:34.470Z,4.43
2023-05-06T04:03:43.481Z,4.43
2023-05-06T04:08:52.730Z,4.48
2023-05-06T04:14:01.886Z,4.48
2023-05-06T04:19:10.941Z,4.45
2023-05-06T04:24:19.398Z,4.45
2023-05-06T04:29:27.896Z,4.53
2023-05-06T04:34:37.049Z,4.53
2023-05-06T04:39:46.144Z,4.41
2023-05-06T04:44:54.643Z,4.41
2023-05-06T04:50:03.146Z,4.49
2023-05-06T04:55:13.548Z,4.49
2023-05-06T05:00:22.663Z,4.46
2023-05-06T05:05:32.415Z,4.46
2023-05-06T05:10:41.502Z,4.4
2023-05-06T05:15:50.615Z,4.4
2023-05-06T05:20:59.734Z,4.4
2023-05-06T05:26:08.876Z,4.4
2023-05-06T05:31:18.852Z,4.37
2023-05-06T05:36:27.130Z,4.37
2023-05-06T05:41:36.252Z,4.38
2023-05-06T05:46:46.300Z,4.38
2023-05-06T05:51:56.414Z,4.39
2023-05-06T05:57:05.517Z,4.39
2023-05-06T06:02:13.945Z,4.41
2023-05-06T06:07:23.083Z,4.41
2023-05-06T06:12:31.581Z,4.44
2023-05-06T06:17:41.853Z,4.44
2023-05-06T06:22:51.104Z,4.41
2023-05-06T06:28:00.848Z,4.41
2023-05-06T06:33:11.271Z,4.44
2023-05-06T06:38:21.012Z,4.43
2023-05-06T06:43:30.799Z,4.43
2023-05-06T07:29:54.883Z,4.45
2023-05-06T07:35:04.000Z,4.45
2023-05-06T07:40:13.023Z,4.49
2023-05-06T07:45:22.200Z,4.49
2023-05-06T07:50:30.610Z,4.44
2023-05-06T07:55:40.365Z,4.44
2023-05-06T08:00:49.515Z,4.43
2023-05-06T08:05:59.265Z,4.43
2023-05-06T08:11:07.109Z,4.39
2023-05-06T08:16:17.706Z,4.39
2023-05-06T08:21:27.283Z,4.42
2023-05-06T08:26:37.034Z,4.42
2023-05-06T08:31:45.716Z,4.35
2023-05-06T08:36:54.598Z,4.35
2023-05-06T08:42:03.191Z,4.41
2023-05-06T08:47:12.876Z,4.41
2023-05-06T08:52:22.849Z,4.51
2023-05-06T08:57:31.760Z,4.51
2023-05-06T09:02:43.913Z,4.38
2023-05-06T09:07:49.991Z,4.38
2023-05-06T09:12:59.977Z,4.41
2023-05-06T09:18:08.520Z,4.41
2023-05-06T09:23:18.045Z,4.42
2023-05-06T09:28:27.117Z,4.42
2023-05-06T09:33:36.252Z,4.41
2023-05-06T09:38:44.744Z,4.41
2023-05-06T09:43:55.747Z,4.36
2023-05-06T09:49:04.226Z,4.32
2023-05-06T09:54:12.703Z,4.32
2023-05-06T09:59:21.849Z,4.27
2023-05-06T10:04:31.262Z,4.27
2023-05-06T10:09:39.416Z,4.33
2023-05-06T10:14:48.566Z,4.33
2023-05-06T10:19:57.711Z,4.33
2023-05-06T10:25:06.818Z,4.33
2023-05-06T11:16:40.793Z,4.35
2023-05-06T11:21:51.015Z,4.32
2023-05-06T11:26:59.501Z,4.32
2023-05-06T11:32:08.551Z,4.34
2023-05-06T11:37:17.162Z,4.34
2023-05-06T11:42:26.155Z,4.33
2023-05-06T11:47:38.059Z,4.33
2023-05-06T11:52:46.966Z,4.33
2023-05-06T11:57:56.719Z,4.33
2023-05-06T12:03:06.178Z,4.34
2023-05-06T12:08:28.803Z,4.34
2023-05-06T12:13:23.796Z,4.38
2023-05-06T12:18:32.568Z,4.38
2023-05-06T12:25:01.745Z,4.34
2023-05-06T12:30:13.874Z,4.38
2023-05-06T12:35:23.726Z,4.38
2023-05-06T12:40:34.770Z,4.37
2023-05-06T12:45:46.127Z,4.37
2023-05-06T12:50:58.129Z,4.37
2023-05-06T12:56:09.845Z,4.37
2023-05-06T13:01:20.387Z,4.41
2023-05-06T13:06:29.971Z,4.41
2023-05-06T13:11:40.376Z,4.44
2023-05-06T13:16:50.329Z,4.44
2023-05-06T13:22:02.493Z,4.49
2023-05-06T13:27:10.983Z,4.49
2023-05-06T13:32:22.128Z,4.42
2023-05-06T13:37:31.715Z,4.42
2023-05-06T13:42:40.886Z,4.35
2023-05-06T13:47:50.980Z,4.35
2023-05-06T13:52:59.763Z,4.36
2023-05-06T13:58:08.259Z,4.36
2023-05-06T14:03:18.009Z,4.38
2023-05-06T14:08:27.728Z,4.38
2023-05-06T14:13:39.423Z,4.37
2023-05-06T14:18:50.474Z,4.37
2023-05-06T14:24:00.433Z,4.35
2023-05-06T14:29:10.062Z,4.35
2023-05-06T14:34:18.454Z,4.34
2023-05-06T14:39:28.208Z,4.34
2023-05-06T14:44:38.529Z,4.33
2023-05-06T14:49:46.455Z,4.33
2023-05-06T14:54:56.882Z,4.37
2023-05-06T15:00:05.997Z,4.37
2023-05-06T15:05:15.912Z,4.35
2023-05-06T15:10:24.858Z,4.39
2023-05-06T15:15:34.010Z,4.39
2023-05-06T15:20:44.386Z,4.39
2023-05-06T15:25:54.811Z,4.39
2023-05-06T16:12:20.218Z,4.53
2023-05-06T16:17:29.451Z,4.53
2023-05-06T16:22:40.232Z,4.36
2023-05-06T16:27:47.416Z,4.36
2023-05-06T16:32:56.738Z,4.28
2023-05-06T16:38:06.309Z,4.28
2023-05-06T16:43:14.788Z,4.29
2023-05-06T16:48:24.368Z,4.29
2023-05-06T16:53:33.064Z,4.23
2023-05-06T16:58:43.041Z,4.23
2023-05-06T17:03:51.359Z,4.26
2023-05-06T17:09:00.528Z,4.26
2023-05-06T17:14:09.496Z,4.25
2023-05-06T17:19:22.453Z,4.25
2023-05-06T17:24:30.977Z,4.27
2023-05-06T17:29:38.819Z,4.27
2023-05-06T17:34:48.548Z,4.24
2023-05-06T17:39:58.333Z,4.24
2023-05-06T17:45:09.114Z,4.25
2023-05-06T17:50:17.826Z,4.25
2023-05-06T17:55:27.594Z,4.3
2023-05-06T18:00:36.716Z,4.3
2023-05-06T18:05:45.847Z,4.28
2023-05-06T18:10:53.652Z,4.28
2023-05-06T18:16:05.465Z,4.27
2023-05-06T18:21:14.453Z,4.33
2023-05-06T18:26:46.618Z,4.33
2023-05-06T18:31:34.941Z,4.35
2023-05-06T18:36:43.129Z,4.35
2023-05-06T18:41:52.855Z,4.4
2023-05-06T18:47:01.363Z,4.4
2023-05-06T18:52:10.447Z,4.39
2023-05-06T18:57:19.107Z,4.39
2023-05-06T19:02:28.429Z,4.36
2023-05-06T19:07:37.197Z,4.36
2023-05-06T19:12:45.184Z,4.3
2023-05-06T19:17:54.438Z,4.3
2023-05-06T20:04:18.221Z,4.34
2023-05-06T20:09:27.366Z,4.34
2023-05-06T20:14:37.018Z,4.27
2023-05-06T20:19:46.829Z,4.27
2023-05-06T20:24:55.301Z,4.31
2023-05-06T20:30:05.310Z,4.31
2023-05-06T20:35:16.068Z,4.25
2023-05-06T20:40:25.855Z,4.25
2023-05-06T20:45:35.713Z,4.24
2023-05-06T20:50:44.113Z,4.24
2023-05-06T20:55:54.107Z,4.26
2023-05-06T21:01:02.512Z,4.26
2023-05-06T21:06:11.405Z,4.22
2023-05-06T21:11:21.162Z,4.22
2023-05-06T21:16:30.308Z,4.26
2023-05-06T21:21:38.792Z,4.26
2023-05-06T21:26:47.915Z,4.23
2023-05-06T21:31:57.630Z,4.23
2023-05-06T21:37:06.157Z,4.22
2023-05-06T21:42:14.626Z,4.24
2023-05-06T21:47:25.192Z,4.24
2023-05-06T21:52:34.763Z,4.2
2023-05-06T21:57:46.493Z,4.2
2023-05-06T22:02:53.975Z,4.24
2023-05-06T22:08:02.793Z,4.24
2023-05-06T22:13:12.939Z,4.24
2023-05-06T22:18:20.438Z,4.24
2023-05-06T22:23:29.492Z,4.25
2023-05-06T22:28:38.656Z,4.25
2023-05-06T22:33:47.721Z,4.26
2023-05-06T22:38:57.032Z,4.26
2023-05-06T22:44:06.655Z,4.29
2023-05-06T22:49:16.061Z,4.29
2023-05-06T22:54:24.853Z,4.35
2023-05-06T22:59:33.970Z,4.35
2023-05-06T23:04:43.740Z,4.34
2023-05-06T23:51:05.294Z,4.42
2023-05-06T23:56:14.953Z,4.4
